Caden Foss — WDJ6190 — position and weather

sailwx.info

Track history (hours):
 
Tides and Currents Weather Stations Pressure Air Temp Water Temp Dewpoint Dewpoint Depression Visibility Wind Speed Wind Dir Waves Ship Positions

Caden Foss

Owner: Foss Maritime Co, Seattle, WA. More information available from US FCC via Universal Licensing System and Coast Guard Vessel Documentation Center.

Last reported at 2018-Apr-22 05:25 UTC. Time now 2018-Apr-22 06:37 UTC.
Position N 38°03' W 122°08'.

Length 34 m; draft 6.1 m.

Type: Tug. MMSI: 367795270.

Date/timePositionNaut miles runAvg speedWind from/ knotsBaromVisibWave heightAir tempDewpointWater temp
2018-Apr-22 05:25N 38°03' W 122°08'2 3.7
2018-Apr-22 04:57N 38°02' W 122°10'2 4.9
2018-Apr-22 04:30N 38°03' W 122°12'3 6.8
2018-Apr-22 04:00N 38°03' W 122°16'5 9.3
2018-Apr-22 03:30N 38°02' W 122°22'5 9.5
2018-Apr-22 03:00N 37°58' W 122°26'510.8
2018-Apr-22 02:30N 37°53' W 122°25'2 3.3
2018-Apr-22 02:00N 37°55' W 122°25'1 1.1
2018-Apr-22 01:23N 37°55' W 122°25'0 0.0
2018-Apr-22 00:59N 37°55' W 122°25'0 0.0
2018-Apr-22 00:29N 37°55' W 122°25'0 0.0
2018-Apr-21 23:59N 37°55' W 122°25'0 0.0
2018-Apr-21 23:29N 37°55' W 122°25'0 0.0
2018-Apr-21 22:59N 37°55' W 122°25'0 0.0
2018-Apr-21 22:26N 37°55' W 122°25'0 0.0
2018-Apr-21 21:59N 37°55' W 122°25'0 0.0
2018-Apr-21 21:29N 37°55' W 122°25'0 0.0
2018-Apr-21 20:59N 37°55' W 122°25'0 0.0
2018-Apr-21 20:29N 37°55' W 122°25'1 1.4
2018-Apr-21 20:01N 37°55' W 122°25'4 8.4
2018-Apr-21 19:30N 37°51' W 122°24'2 3.8
2018-Apr-21 19:00N 37°49' W 122°24'0 0.1
2018-Apr-21 18:30N 37°49' W 122°24'2 5.0
2018-Apr-21 18:00N 37°49' W 122°21'0 0.9
2018-Apr-21 17:28N 37°49' W 122°22'0 0.1
2018-Apr-21 16:58N 37°49' W 122°22'0 0.1
2018-Apr-21 16:25N 37°49' W 122°22'0 0.1
2018-Apr-21 15:58N 37°49' W 122°22'0 0.0
2018-Apr-21 15:28N 37°49' W 122°22'0 0.1
2018-Apr-21 14:58N 37°49' W 122°22'0 0.1
2018-Apr-21 14:28N 37°49' W 122°22'0 0.0
2018-Apr-21 13:58N 37°49' W 122°22'0 0.0
2018-Apr-21 13:28N 37°49' W 122°22'0 0.0
2018-Apr-21 12:58N 37°49' W 122°22'0 0.0
2018-Apr-21 12:28N 37°49' W 122°22'0 0.0
2018-Apr-21 11:58N 37°49' W 122°22'2 4.8
2018-Apr-21 11:30N 37°48' W 122°19'0 0.2
2018-Apr-21 11:01N 37°48' W 122°19'0 0.1
2018-Apr-21 10:31N 37°48' W 122°19'2 4.4
2018-Apr-21 10:00N 37°49' W 122°22'0 0.0
2018-Apr-21 09:29N 37°49' W 122°22'0 0.0
2018-Apr-21 08:59N 37°49' W 122°22'0 0.0
2018-Apr-21 08:26N 37°49' W 122°22'0 0.0
2018-Apr-21 07:59N 37°49' W 122°22'4 7.2
2018-Apr-21 07:30N 37°52' W 122°24'3 6.9
2018-Apr-21 07:00N 37°55' W 122°25'0 0.4
2018-Apr-21 06:31N 37°56' W 122°25'0 0.7
2018-Apr-21 06:01N 37°55' W 122°25'0 0.3
2018-Apr-21 05:30N 37°55' W 122°25'0 0.0
2018-Apr-21 04:57N 37°55' W 122°25'0 0.0
2018-Apr-21 04:30N 37°55' W 122°25'0 0.0
2018-Apr-21 03:57N 37°55' W 122°25'2 4.9
2018-Apr-21 03:30N 37°53' W 122°25'4 8.1
2018-Apr-21 03:00N 37°50' W 122°28'2 4.8
2018-Apr-21 02:31N 37°49' W 122°31'2 3.8
2018-Apr-21 02:01N 37°49' W 122°29'4 8.4
2018-Apr-21 01:30N 37°53' W 122°25'5 9.1
2018-Apr-21 01:00N 37°57' W 122°27'5 9.2
2018-Apr-21 00:30N 38°01' W 122°24'4 8.7
2018-Apr-21 00:00N 38°03' W 122°19'3 4.2
2018-Apr-20 23:23N 38°03' W 122°16'0 0.3
2018-Apr-20 23:00N 38°04' W 122°16'2 4.1
2018-Apr-20 22:30N 38°03' W 122°18'510.4
2018-Apr-20 22:00N 38°00' W 122°24'510.3
2018-Apr-20 21:30N 37°55' W 122°25'0 0.5
2018-Apr-20 20:59N 37°55' W 122°25'0 0.0
2018-Apr-20 20:29N 37°55' W 122°25'0 0.0
2018-Apr-20 19:59N 37°55' W 122°25'0 0.0
2018-Apr-20 19:29N 37°55' W 122°25'0 0.0
2018-Apr-20 18:59N 37°55' W 122°25'0 0.0
2018-Apr-20 18:29N 37°55' W 122°25'0 0.0
2018-Apr-20 17:56N 37°55' W 122°25'0 0.0
2018-Apr-20 17:29N 37°55' W 122°25'0 0.0
2018-Apr-20 16:59N 37°55' W 122°25'0 0.0
2018-Apr-20 16:29N 37°55' W 122°25'0 0.0
2018-Apr-20 15:59N 37°55' W 122°25'0 0.0
2018-Apr-20 15:29N 37°55' W 122°25'0 0.0
2018-Apr-20 14:59N 37°55' W 122°25'0 0.0
2018-Apr-20 14:29N 37°55' W 122°25'0 0.0
2018-Apr-20 13:59N 37°55' W 122°25'0 0.0
2018-Apr-20 13:29N 37°55' W 122°25'0 0.0
2018-Apr-20 12:59N 37°55' W 122°25'0 0.0
2018-Apr-20 12:29N 37°55' W 122°25'0 0.0
2018-Apr-20 11:56N 37°55' W 122°25'0 0.0
2018-Apr-20 11:29N 37°55' W 122°25'0 0.0
2018-Apr-20 10:59N 37°55' W 122°25'0 0.0
2018-Apr-20 10:29N 37°55' W 122°25'0 0.0
2018-Apr-20 09:59N 37°55' W 122°25'0 0.0
2018-Apr-20 09:29N 37°55' W 122°25'0 0.0
2018-Apr-20 08:59N 37°55' W 122°25'0 0.0
2018-Apr-20 08:29N 37°55' W 122°25'0 0.0
2018-Apr-20 07:59N 37°55' W 122°25'0 0.0
2018-Apr-20 07:29N 37°55' W 122°25'0 0.0
2018-Apr-20 06:59N 37°55' W 122°25'0 0.0
2018-Apr-20 06:29N 37°55' W 122°25'0 0.0
2018-Apr-20 05:59N 37°55' W 122°25'0 0.0
2018-Apr-20 05:29N 37°55' W 122°25'0 0.0
2018-Apr-20 04:59N 37°55' W 122°25'0 0.0
2018-Apr-20 04:29N 37°55' W 122°25'0 0.0
2018-Apr-20 03:59N 37°55' W 122°25'0 0.0
2018-Apr-20 03:29N 37°55' W 122°25'0 0.9
2018-Apr-20 03:00N 37°56' W 122°25'0 0.0
2018-Apr-20 02:30N 37°56' W 122°25'1 2.3
2018-Apr-20 02:00N 37°55' W 122°25'3 6.4
2018-Apr-20 01:30N 37°51' W 122°25'3 6.6
2018-Apr-20 01:00N 37°49' W 122°28'3 5.3
2018-Apr-20 00:30N 37°52' W 122°27'4 7.9
2018-Apr-20 00:00N 37°55' W 122°25'2 3.7
2018-Apr-19 23:27N 37°54' W 122°22'0 0.0
2018-Apr-19 23:00N 37°54' W 122°22'0 0.0
2018-Apr-19 22:30N 37°54' W 122°22'0 0.0
2018-Apr-19 22:00N 37°54' W 122°22'0 0.0
2018-Apr-19 21:30N 37°54' W 122°22'0 0.0
2018-Apr-19 21:00N 37°54' W 122°22'0 0.0
2018-Apr-19 20:30N 37°54' W 122°22'0 0.0
2018-Apr-19 20:00N 37°54' W 122°22'0 0.0
2018-Apr-19 19:30N 37°54' W 122°22'0 0.7
2018-Apr-19 19:00N 37°54' W 122°22'1 1.1
2018-Apr-19 18:30N 37°55' W 122°22'2 3.4
2018-Apr-19 18:01N 37°54' W 122°24'2 3.0
2018-Apr-19 17:31N 37°55' W 122°26'1 2.3
2018-Apr-19 16:58N 37°55' W 122°25'0 0.0
2018-Apr-19 16:28N 37°55' W 122°25'0 0.0
2018-Apr-19 15:58N 37°55' W 122°25'0 0.0
2018-Apr-19 15:28N 37°55' W 122°25'0 0.0
2018-Apr-19 14:55N 37°55' W 122°25'0 0.0
2018-Apr-19 14:28N 37°55' W 122°25'0 0.0
2018-Apr-19 13:58N 37°55' W 122°25'0 0.0
2018-Apr-19 13:28N 37°55' W 122°25'0 0.0
2018-Apr-19 12:58N 37°55' W 122°25'0 0.0
2018-Apr-19 12:28N 37°55' W 122°25'0 0.0
2018-Apr-19 11:58N 37°55' W 122°25'0 0.0
2018-Apr-19 11:28N 37°55' W 122°25'0 0.0
2018-Apr-19 10:58N 37°55' W 122°25'0 0.0
2018-Apr-19 10:28N 37°55' W 122°25'0 0.0
2018-Apr-19 09:52N 37°55' W 122°25'0 0.0
2018-Apr-19 09:28N 37°55' W 122°25'0 0.0
2018-Apr-19 08:58N 37°55' W 122°25'0 0.0
2018-Apr-19 08:28N 37°55' W 122°25'0 0.0
2018-Apr-19 07:58N 37°55' W 122°25'0 0.0
2018-Apr-19 07:28N 37°55' W 122°25'0 0.0
2018-Apr-19 06:58N 37°55' W 122°25'0 0.0
2018-Apr-19 06:28N 37°55' W 122°25'0 0.0
2018-Apr-19 05:55N 37°55' W 122°25'0 0.0
2018-Apr-19 05:28N 37°55' W 122°25'0 0.0
2018-Apr-19 04:58N 37°55' W 122°25'0 0.0
2018-Apr-19 04:28N 37°55' W 122°25'0 0.0
2018-Apr-19 04:01N 37°55' W 122°25'0 0.0
2018-Apr-19 03:28N 37°55' W 122°25'0 0.1
2018-Apr-19 03:00N 37°55' W 122°25'4 8.7
2018-Apr-19 02:30N 37°51' W 122°23'510.9
2018-Apr-19 02:00N 37°48' W 122°18'0 0.7
2018-Apr-19 01:30N 37°48' W 122°18'1 1.6
2018-Apr-19 01:00N 37°48' W 122°19'3 6.3
2018-Apr-19 00:30N 37°50' W 122°22'510.4
2018-Apr-19 00:00N 37°54' W 122°25'2 4.3
2018-Apr-18 23:30N 37°54' W 122°22'0 0.0
2018-Apr-18 23:00N 37°54' W 122°22'0 0.0
2018-Apr-18 22:30N 37°54' W 122°22'0 0.0
2018-Apr-18 22:00N 37°54' W 122°22'0 0.0
2018-Apr-18 21:30N 37°54' W 122°22'0 0.0
2018-Apr-18 21:00N 37°54' W 122°22'0 0.0
2018-Apr-18 20:30N 37°54' W 122°22'0 0.0
2018-Apr-18 20:00N 37°54' W 122°22'0 0.0
2018-Apr-18 19:30N 37°54' W 122°22'0 0.0
2018-Apr-18 19:00N 37°54' W 122°22'0 0.0
2018-Apr-18 18:30N 37°54' W 122°22'0 0.0
2018-Apr-18 18:00N 37°54' W 122°22'0 0.0
2018-Apr-18 17:30N 37°54' W 122°22'0 0.0
2018-Apr-18 16:57N 37°54' W 122°22'0 0.0
2018-Apr-18 16:30N 37°54' W 122°22'0 0.0
2018-Apr-18 16:00N 37°54' W 122°22'0 0.0
2018-Apr-18 15:30N 37°54' W 122°22'0 0.0
2018-Apr-18 14:54N 37°54' W 122°22'0 0.0
2018-Apr-18 14:30N 37°54' W 122°22'0 0.0
2018-Apr-18 14:00N 37°54' W 122°22'0 0.0
2018-Apr-18 13:30N 37°54' W 122°22'0 0.0
2018-Apr-18 13:00N 37°54' W 122°22'0 0.0
2018-Apr-18 12:30N 37°54' W 122°22'0 0.0
2018-Apr-18 12:00N 37°54' W 122°22'0 0.0
2018-Apr-18 11:30N 37°54' W 122°22'0 0.0
2018-Apr-18 11:00N 37°54' W 122°22'0 0.0
2018-Apr-18 10:30N 37°54' W 122°22'2 4.9
2018-Apr-18 10:00N 37°52' W 122°24'510.6
2018-Apr-18 09:30N 37°49' W 122°19'4 7.2
2018-Apr-18 09:00N 37°46' W 122°21'2 3.8
2018-Apr-18 08:30N 37°44' W 122°21'1 1.6
2018-Apr-18 08:01N 37°44' W 122°21'4 8.2
2018-Apr-18 07:30N 37°48' W 122°23'5 9.5
2018-Apr-18 07:00N 37°53' W 122°25'3 5.5
2018-Apr-18 06:30N 37°55' W 122°25'0 0.7
2018-Apr-18 06:00N 37°55' W 122°25'0 0.2
2018-Apr-18 05:30N 37°55' W 122°25'0 0.3
2018-Apr-18 04:58N 37°55' W 122°25'0 0.0
2018-Apr-18 04:28N 37°55' W 122°25'0 0.0
2018-Apr-18 03:58N 37°55' W 122°25'0 0.0
2018-Apr-18 03:28N 37°55' W 122°25'0 0.0
2018-Apr-18 02:58N 37°55' W 122°25'0 0.0
2018-Apr-18 02:28N 37°55' W 122°25'0 0.0
2018-Apr-18 01:58N 37°55' W 122°25'0 0.0
2018-Apr-18 01:31N 37°55' W 122°25'0 0.0
2018-Apr-18 01:01N 37°55' W 122°25'0 0.0
2018-Apr-18 00:28N 37°55' W 122°25'0 0.0
2018-Apr-18 00:01N 37°55' W 122°25'0 0.0
2018-Apr-17 23:28N 37°55' W 122°25'0 0.0
2018-Apr-17 22:58N 37°55' W 122°25'0 0.0
2018-Apr-17 22:31N 37°55' W 122°25'0 0.0
2018-Apr-17 21:58N 37°55' W 122°25'0 0.0
2018-Apr-17 21:28N 37°55' W 122°25'0 0.0
2018-Apr-17 20:58N 37°55' W 122°25'0 0.0
2018-Apr-17 20:28N 37°55' W 122°25'0 0.0
2018-Apr-17 19:58N 37°55' W 122°25'0 0.0
2018-Apr-17 19:28N 37°55' W 122°25'0 0.0
2018-Apr-17 19:01N 37°55' W 122°25'0 0.0
2018-Apr-17 18:27N 37°55' W 122°25'0 0.0
2018-Apr-17 18:01N 37°55' W 122°25'0 0.0
2018-Apr-17 17:31N 37°55' W 122°25'3 5.6
2018-Apr-17 17:00N 37°53' W 122°25'3 6.2
2018-Apr-17 16:30N 37°56' W 122°25'0 0.1
2018-Apr-17 16:00N 37°56' W 122°25'3 5.5
2018-Apr-17 15:30N 37°53' W 122°25'4 8.8
2018-Apr-17 15:00N 37°49' W 122°22'0 0.0
2018-Apr-17 14:29N 37°49' W 122°22'0 0.0
2018-Apr-17 14:01N 37°49' W 122°22'1 2.8
2018-Apr-17 13:30N 37°48' W 122°21'2 3.1
2018-Apr-17 13:00N 37°48' W 122°19'1 2.6
2018-Apr-17 12:30N 37°48' W 122°20'3 5.6
2018-Apr-17 12:00N 37°49' W 122°23'1 2.0
2018-Apr-17 11:30N 37°49' W 122°23'3 5.1
2018-Apr-17 11:00N 37°46' W 122°21'1 1.6
2018-Apr-17 10:30N 37°47' W 122°21'4 7.0
2018-Apr-17 10:00N 37°50' W 122°24'510.1
2018-Apr-17 09:30N 37°54' W 122°27'5 9.2
2018-Apr-17 09:00N 37°59' W 122°26'5 8.7
2018-Apr-17 08:29N 38°02' W 122°22'4 7.6
2018-Apr-17 08:00N 38°03' W 122°17'4 6.7
2018-Apr-17 07:27N 38°04' W 122°12'4 1.7
2018-Apr-17 05:07N 38°02' W 122°08'110.8
2018-Apr-17 05:00N 38°02' W 122°09'5 9.6
2018-Apr-17 04:30N 38°04' W 122°15'6 9.8
2018-Apr-17 03:56N 38°02' W 122°22'511.1
2018-Apr-17 03:30N 37°58' W 122°26'510.4
2018-Apr-17 03:00N 37°53' W 122°26'510.5
2018-Apr-17 02:30N 37°49' W 122°30'1 1.2
2018-Apr-17 02:00N 37°49' W 122°31'5 9.9
2018-Apr-17 01:30N 37°51' W 122°25'5 9.0
2018-Apr-17 01:00N 37°55' W 122°25'0 0.9
2018-Apr-17 00:30N 37°55' W 122°25'3 5.0
2018-Apr-17 00:00N 37°54' W 122°22'0 0.4
2018-Apr-16 23:30N 37°55' W 122°22'0 0.8
2018-Apr-16 23:00N 37°54' W 122°22'2 4.3
2018-Apr-16 22:30N 37°55' W 122°24'1 1.5
2018-Apr-16 22:00N 37°54' W 122°25'1 2.2
2018-Apr-16 21:29N 37°55' W 122°25'0 0.0
2018-Apr-16 20:59N 37°55' W 122°25'0 0.0
2018-Apr-16 20:29N 37°55' W 122°25'0 0.0
2018-Apr-16 20:00N 37°55' W 122°25'0 0.2
2018-Apr-16 19:30N 37°55' W 122°25'0 0.3
2018-Apr-16 19:01N 37°55' W 122°25'0 0.8
2018-Apr-16 18:30N 37°55' W 122°25'0 0.9
2018-Apr-16 18:00N 37°55' W 122°25'0 0.0
2018-Apr-16 17:30N 37°55' W 122°25'0 0.0
2018-Apr-16 17:00N 37°55' W 122°25'0 0.0
2018-Apr-16 16:30N 37°55' W 122°25'0 0.0
2018-Apr-16 16:01N 37°55' W 122°25'0 0.1
2018-Apr-16 15:30N 37°55' W 122°24'3 6.6
2018-Apr-16 15:00N 37°52' W 122°24'2 3.5
2018-Apr-16 14:31N 37°51' W 122°23'3 5.9
2018-Apr-16 14:00N 37°48' W 122°21'1 2.0
2018-Apr-16 13:30N 37°48' W 122°19'3 6.5
2018-Apr-16 13:01N 37°49' W 122°23'0 1.0
2018-Apr-16 12:30N 37°49' W 122°23'2 3.2
2018-Apr-16 11:59N 37°48' W 122°21'0 0.0
2018-Apr-16 11:29N 37°48' W 122°21'0 0.0
2018-Apr-16 10:59N 37°48' W 122°21'0 0.0
2018-Apr-16 10:29N 37°48' W 122°21'0 0.0
2018-Apr-16 09:59N 37°48' W 122°21'0 0.0
2018-Apr-16 09:29N 37°48' W 122°21'0 0.0
2018-Apr-16 08:59N 37°48' W 122°21'0 0.0
2018-Apr-16 08:30N 37°48' W 122°21'3 6.2
2018-Apr-16 08:00N 37°51' W 122°23'510.2
2018-Apr-16 07:31N 37°56' W 122°25'0 0.1
2018-Apr-16 07:00N 37°56' W 122°25'0 0.2
2018-Apr-16 06:31N 37°56' W 122°25'2 4.9
2018-Apr-16 06:00N 37°53' W 122°25'4 8.0
2018-Apr-16 05:30N 37°49' W 122°25'4 7.0
2018-Apr-16 05:00N 37°49' W 122°29'1 1.7
2018-Apr-16 04:30N 37°48' W 122°30'1 2.7
2018-Apr-16 04:00N 37°49' W 122°31'1 1.1
2018-Apr-16 03:31N 37°49' W 122°31'4 8.4
2018-Apr-16 03:00N 37°52' W 122°27'4 7.8
2018-Apr-16 02:29N 37°55' W 122°25'0 0.0
2018-Apr-16 01:56N 37°55' W 122°25'0 0.0
2018-Apr-16 01:29N 37°55' W 122°25'0 0.0
2018-Apr-16 00:59N 37°55' W 122°25'0 0.0
2018-Apr-16 00:29N 37°55' W 122°25'0 0.0
2018-Apr-15 23:59N 37°55' W 122°25'0 0.0
2018-Apr-15 23:29N 37°55' W 122°25'0 0.0
2018-Apr-15 22:59N 37°55' W 122°25'0 0.0
2018-Apr-15 22:26N 37°55' W 122°25'0 0.0
2018-Apr-15 21:56N 37°55' W 122°25'0 0.0
2018-Apr-15 21:29N 37°55' W 122°25'0 0.0
2018-Apr-15 20:59N 37°55' W 122°25'0 0.0
2018-Apr-15 20:29N 37°55' W 122°25'0 0.0
2018-Apr-15 19:47N 37°55' W 122°25'0 0.0
2018-Apr-15 19:29N 37°55' W 122°25'0 0.0
2018-Apr-15 18:59N 37°55' W 122°25'0 0.0
2018-Apr-15 18:29N 37°55' W 122°25'0 0.0
2018-Apr-15 17:59N 37°55' W 122°25'0 0.0
2018-Apr-15 17:29N 37°55' W 122°25'0 0.0
2018-Apr-15 16:59N 37°55' W 122°25'0 0.0
2018-Apr-15 16:29N 37°55' W 122°25'0 0.0
2018-Apr-15 15:59N 37°55' W 122°25'0 0.0
2018-Apr-15 15:29N 37°55' W 122°25'0 0.0
2018-Apr-15 14:59N 37°55' W 122°25'0 0.0
2018-Apr-15 14:29N 37°55' W 122°25'0 0.0
2018-Apr-15 13:56N 37°55' W 122°25'1 3.4
2018-Apr-15 13:30N 37°54' W 122°25'5 9.5
2018-Apr-15 13:00N 37°50' W 122°22'3 6.7
2018-Apr-15 12:30N 37°48' W 122°19'0 0.1
2018-Apr-15 12:01N 37°48' W 122°19'2 4.1
2018-Apr-15 11:30N 37°49' W 122°21'1 1.1
2018-Apr-15 10:59N 37°49' W 122°22'0 0.0
2018-Apr-15 10:29N 37°49' W 122°22'0 0.0
2018-Apr-15 10:00N 37°49' W 122°22'4 8.5
2018-Apr-15 09:30N 37°53' W 122°25'2 5.0
2018-Apr-15 09:00N 37°55' W 122°25'0 0.1
2018-Apr-15 08:30N 37°55' W 122°25'1 2.7
2018-Apr-15 08:00N 37°54' W 122°25'0 0.7
2018-Apr-15 07:30N 37°54' W 122°25'0 0.1
2018-Apr-15 07:00N 37°54' W 122°25'2 3.2
2018-Apr-15 06:31N 37°55' W 122°25'0 0.0
2018-Apr-15 06:00N 37°55' W 122°25'2 4.1
2018-Apr-15 05:30N 37°54' W 122°22'0 0.0
2018-Apr-15 05:00N 37°54' W 122°22'0 0.0
2018-Apr-15 04:30N 37°54' W 122°22'0 0.0
2018-Apr-15 04:00N 37°54' W 122°22'0 0.0
2018-Apr-15 03:30N 37°54' W 122°22'0 0.0
2018-Apr-15 03:00N 37°54' W 122°22'0 0.0
2018-Apr-15 02:30N 37°54' W 122°22'0 0.0
2018-Apr-15 02:00N 37°54' W 122°22'0 0.0
2018-Apr-15 01:30N 37°54' W 122°22'2 4.6
2018-Apr-15 01:00N 37°56' W 122°25'1 1.1
2018-Apr-15 00:30N 37°55' W 122°25'3 5.6
2018-Apr-15 00:00N 37°52' W 122°25'4 7.2
2018-Apr-14 23:30N 37°49' W 122°24'2 4.6
2018-Apr-14 23:00N 37°47' W 122°22'0 0.1
2018-Apr-14 22:30N 37°47' W 122°22'0 0.1
2018-Apr-14 22:00N 37°47' W 122°22'1 2.6
2018-Apr-14 21:30N 37°48' W 122°22'5 9.5
2018-Apr-14 21:00N 37°53' W 122°25'2 4.3
2018-Apr-14 20:26N 37°55' W 122°25'0 0.0
2018-Apr-14 19:59N 37°55' W 122°25'0 0.0
2018-Apr-14 19:29N 37°55' W 122°25'0 0.0
2018-Apr-14 18:59N 37°55' W 122°25'0 0.0
2018-Apr-14 18:29N 37°55' W 122°25'0 0.0
2018-Apr-14 17:59N 37°55' W 122°25'0 0.0
2018-Apr-14 17:29N 37°55' W 122°25'0 0.0
2018-Apr-14 16:59N 37°55' W 122°25'0 0.0
2018-Apr-14 16:26N 37°55' W 122°25'0 0.0
2018-Apr-14 15:56N 37°55' W 122°25'0 0.0
2018-Apr-14 15:29N 37°55' W 122°25'0 0.0
2018-Apr-14 14:56N 37°55' W 122°25'0 0.0
2018-Apr-14 14:29N 37°55' W 122°25'0 0.0
2018-Apr-14 14:01N 37°55' W 122°25'0 0.3
2018-Apr-14 13:30N 37°55' W 122°25'0 0.2
2018-Apr-14 13:00N 37°55' W 122°25'1 2.6
2018-Apr-14 12:30N 37°54' W 122°25'1 1.7
2018-Apr-14 12:00N 37°53' W 122°25'2 4.1
2018-Apr-14 11:30N 37°55' W 122°25'0 0.0
2018-Apr-14 11:00N 37°55' W 122°25'0 0.0
2018-Apr-14 10:30N 37°55' W 122°25'0 0.0
2018-Apr-14 10:00N 37°55' W 122°25'0 0.0
2018-Apr-14 09:30N 37°55' W 122°25'0 0.0
2018-Apr-14 09:00N 37°55' W 122°25'0 0.0
2018-Apr-14 08:30N 37°55' W 122°25'0 0.0
2018-Apr-14 08:00N 37°55' W 122°25'0 0.0
2018-Apr-14 07:30N 37°55' W 122°25'0 0.0
2018-Apr-14 07:00N 37°55' W 122°25'0 0.0
2018-Apr-14 06:30N 37°55' W 122°25'0 0.0
2018-Apr-14 06:00N 37°55' W 122°25'0 0.0
2018-Apr-14 05:30N 37°55' W 122°25'0 0.0
2018-Apr-14 05:00N 37°55' W 122°25'0 0.0
2018-Apr-14 04:30N 37°55' W 122°25'0 0.0
2018-Apr-14 04:00N 37°55' W 122°25'0 0.0
2018-Apr-14 03:30N 37°55' W 122°25'2 3.9
2018-Apr-14 03:00N 37°53' W 122°25'5 9.9
2018-Apr-14 02:30N 37°49' W 122°21'2 4.6
2018-Apr-14 02:00N 37°47' W 122°22'1 1.7
2018-Apr-14 01:30N 37°48' W 122°22'4 8.6
2018-Apr-14 01:00N 37°49' W 122°27'2 4.2
2018-Apr-14 00:31N 37°49' W 122°30'1 2.3
2018-Apr-14 00:00N 37°49' W 122°31'0 0.6
2018-Apr-13 23:30N 37°49' W 122°31'2 4.3
2018-Apr-13 23:00N 37°50' W 122°28'611.8
2018-Apr-13 22:30N 37°55' W 122°25'0 0.7
2018-Apr-13 21:54N 37°55' W 122°25'0 0.0
2018-Apr-13 21:30N 37°55' W 122°25'0 0.0
2018-Apr-13 21:00N 37°55' W 122°25'0 0.0
2018-Apr-13 20:30N 37°55' W 122°25'0 0.0
2018-Apr-13 20:00N 37°55' W 122°25'0 0.0
2018-Apr-13 19:30N 37°55' W 122°25'0 0.0
2018-Apr-13 19:00N 37°55' W 122°25'0 0.0
2018-Apr-13 18:30N 37°55' W 122°25'0 0.0
2018-Apr-13 18:00N 37°55' W 122°25'0 0.0
2018-Apr-13 17:30N 37°55' W 122°25'0 0.0
2018-Apr-13 17:00N 37°55' W 122°25'510.2
2018-Apr-13 16:30N 37°51' W 122°27'3 6.8
2018-Apr-13 16:00N 37°49' W 122°31'1 2.8
2018-Apr-13 15:30N 37°49' W 122°29'4 7.8
2018-Apr-13 15:00N 37°50' W 122°24'4 8.8
2018-Apr-13 14:30N 37°46' W 122°21'1 2.3
2018-Apr-13 14:00N 37°45' W 122°21'0 0.4
2018-Apr-13 13:30N 37°45' W 122°21'0 0.6
2018-Apr-13 13:00N 37°45' W 122°21'0 0.7
2018-Apr-13 12:30N 37°45' W 122°21'3 5.6
2018-Apr-13 12:00N 37°48' W 122°22'611.1
2018-Apr-13 11:30N 37°53' W 122°25'2 3.0
2018-Apr-13 10:41N 37°54' W 122°22'0 0.0
2018-Apr-13 10:29N 37°54' W 122°22'0 0.0
2018-Apr-13 09:56N 37°54' W 122°22'0 0.0
2018-Apr-13 09:26N 37°54' W 122°22'0 0.0
2018-Apr-13 08:56N 37°54' W 122°22'0 0.0
2018-Apr-13 08:29N 37°54' W 122°22'0 0.0
2018-Apr-13 07:59N 37°54' W 122°22'0 0.0
2018-Apr-13 07:29N 37°54' W 122°22'0 0.0
2018-Apr-13 06:59N 37°54' W 122°22'0 0.0
2018-Apr-13 06:26N 37°54' W 122°22'0 0.0
2018-Apr-13 04:50N 37°54' W 122°22'0 0.0
2018-Apr-13 04:29N 37°54' W 122°22'0 0.0
2018-Apr-13 03:53N 37°54' W 122°22'0 0.4
2018-Apr-13 03:30N 37°54' W 122°22'0 0.8
2018-Apr-13 03:00N 37°54' W 122°22'0 0.4
2018-Apr-13 02:30N 37°54' W 122°22'2 3.7
2018-Apr-13 02:00N 37°54' W 122°24'2 4.6
2018-Apr-13 01:30N 37°52' W 122°24'611.2
2018-Apr-13 01:01N 37°48' W 122°20'1 1.9
2018-Apr-13 00:30N 37°48' W 122°19'0 0.0
2018-Apr-13 00:00N 37°48' W 122°19'1 1.1
2018-Apr-12 23:30N 37°48' W 122°19'2 4.8
2018-Apr-12 23:00N 37°49' W 122°22'0 0.0
2018-Apr-12 22:27N 37°49' W 122°22'0 0.0
2018-Apr-12 21:57N 37°49' W 122°22'0 0.0
2018-Apr-12 21:30N 37°49' W 122°22'2 3.2
2018-Apr-12 21:00N 37°49' W 122°20'4 7.7
2018-Apr-12 20:30N 37°45' W 122°21'1 3.0
2018-Apr-12 20:00N 37°46' W 122°22'4 7.2
2018-Apr-12 19:30N 37°50' W 122°24'5 9.3
2018-Apr-12 19:00N 37°54' W 122°25'1 2.2
2018-Apr-12 18:28N 37°55' W 122°25'0 0.2
2018-Apr-12 17:55N 37°55' W 122°25'0 0.0
2018-Apr-12 17:22N 37°55' W 122°25'0 0.0
2018-Apr-12 16:58N 37°55' W 122°25'0 0.0
2018-Apr-12 16:16N 37°55' W 122°25'0 0.5
2018-Apr-12 16:00N 37°55' W 122°25'0 0.0
2018-Apr-12 15:26N 37°55' W 122°25'0 0.2
2018-Apr-12 15:00N 37°55' W 122°25'2 3.3
2018-Apr-12 14:30N 37°54' W 122°25'1 1.5
2018-Apr-12 14:00N 37°53' W 122°25'2 4.5
2018-Apr-12 13:29N 37°55' W 122°25'1 1.1
2018-Apr-12 13:00N 37°55' W 122°25'0 0.3
2018-Apr-12 12:30N 37°55' W 122°25'0 0.0
2018-Apr-12 12:00N 37°55' W 122°25'0 0.3
2018-Apr-12 11:30N 37°55' W 122°24'2 3.1
2018-Apr-12 11:00N 37°54' W 122°25'3 6.4
2018-Apr-12 10:30N 37°51' W 122°23'3 6.7
2018-Apr-12 10:00N 37°49' W 122°20'0 0.5
2018-Apr-12 09:28N 37°49' W 122°20'0 0.0
2018-Apr-12 08:58N 37°49' W 122°20'0 0.0
2018-Apr-12 08:28N 37°49' W 122°20'0 0.0
2018-Apr-12 07:58N 37°49' W 122°20'0 0.0
2018-Apr-12 07:28N 37°49' W 122°20'0 0.0
2018-Apr-12 06:55N 37°49' W 122°20'0 0.0
2018-Apr-12 06:28N 37°49' W 122°20'0 0.0
2018-Apr-12 05:58N 37°49' W 122°20'0 0.0
2018-Apr-12 05:28N 37°49' W 122°20'  
Track history (hours):
 
Tides and Currents Weather Stations Pressure Air Temp Water Temp Dewpoint Dewpoint Depression Visibility Wind Speed Wind Dir Waves Ship Positions

Caden Foss

Owner: Foss Maritime Co, Seattle, WA. More information available from US FCC via Universal Licensing System and Coast Guard Vessel Documentation Center.

Last reported at 2018-Apr-22 05:25 UTC. Time now 2018-Apr-22 06:37 UTC.
Position N 38°03' W 122°08'.

Length 34 m; draft 6.1 m.

Type: Tug. MMSI: 367795270.

Date/timePositionNaut miles runAvg speedWind from/ knotsBaromVisibWave heightAir tempDewpointWater temp
2018-Apr-22 05:25N 38°03' W 122°08'2 3.7
2018-Apr-22 04:57N 38°02' W 122°10'2 4.9
2018-Apr-22 04:30N 38°03' W 122°12'3 6.8
2018-Apr-22 04:00N 38°03' W 122°16'5 9.3
2018-Apr-22 03:30N 38°02' W 122°22'5 9.5
2018-Apr-22 03:00N 37°58' W 122°26'510.8
2018-Apr-22 02:30N 37°53' W 122°25'2 3.3
2018-Apr-22 02:00N 37°55' W 122°25'1 1.1
2018-Apr-22 01:23N 37°55' W 122°25'0 0.0
2018-Apr-22 00:59N 37°55' W 122°25'0 0.0
2018-Apr-22 00:29N 37°55' W 122°25'0 0.0
2018-Apr-21 23:59N 37°55' W 122°25'0 0.0
2018-Apr-21 23:29N 37°55' W 122°25'0 0.0
2018-Apr-21 22:59N 37°55' W 122°25'0 0.0
2018-Apr-21 22:26N 37°55' W 122°25'0 0.0
2018-Apr-21 21:59N 37°55' W 122°25'0 0.0
2018-Apr-21 21:29N 37°55' W 122°25'0 0.0
2018-Apr-21 20:59N 37°55' W 122°25'0 0.0
2018-Apr-21 20:29N 37°55' W 122°25'1 1.4
2018-Apr-21 20:01N 37°55' W 122°25'4 8.4
2018-Apr-21 19:30N 37°51' W 122°24'2 3.8
2018-Apr-21 19:00N 37°49' W 122°24'0 0.1
2018-Apr-21 18:30N 37°49' W 122°24'2 5.0
2018-Apr-21 18:00N 37°49' W 122°21'0 0.9
2018-Apr-21 17:28N 37°49' W 122°22'0 0.1
2018-Apr-21 16:58N 37°49' W 122°22'0 0.1
2018-Apr-21 16:25N 37°49' W 122°22'0 0.1
2018-Apr-21 15:58N 37°49' W 122°22'0 0.0
2018-Apr-21 15:28N 37°49' W 122°22'0 0.1
2018-Apr-21 14:58N 37°49' W 122°22'0 0.1
2018-Apr-21 14:28N 37°49' W 122°22'0 0.0
2018-Apr-21 13:58N 37°49' W 122°22'0 0.0
2018-Apr-21 13:28N 37°49' W 122°22'0 0.0
2018-Apr-21 12:58N 37°49' W 122°22'0 0.0
2018-Apr-21 12:28N 37°49' W 122°22'0 0.0
2018-Apr-21 11:58N 37°49' W 122°22'2 4.8
2018-Apr-21 11:30N 37°48' W 122°19'0 0.2
2018-Apr-21 11:01N 37°48' W 122°19'0 0.1
2018-Apr-21 10:31N 37°48' W 122°19'2 4.4
2018-Apr-21 10:00N 37°49' W 122°22'0 0.0
2018-Apr-21 09:29N 37°49' W 122°22'0 0.0
2018-Apr-21 08:59N 37°49' W 122°22'0 0.0
2018-Apr-21 08:26N 37°49' W 122°22'0 0.0
2018-Apr-21 07:59N 37°49' W 122°22'4 7.2
2018-Apr-21 07:30N 37°52' W 122°24'3 6.9
2018-Apr-21 07:00N 37°55' W 122°25'0 0.4
2018-Apr-21 06:31N 37°56' W 122°25'0 0.7
2018-Apr-21 06:01N 37°55' W 122°25'0 0.3
2018-Apr-21 05:30N 37°55' W 122°25'0 0.0
2018-Apr-21 04:57N 37°55' W 122°25'0 0.0
2018-Apr-21 04:30N 37°55' W 122°25'0 0.0
2018-Apr-21 03:57N 37°55' W 122°25'2 4.9
2018-Apr-21 03:30N 37°53' W 122°25'4 8.1
2018-Apr-21 03:00N 37°50' W 122°28'2 4.8
2018-Apr-21 02:31N 37°49' W 122°31'2 3.8
2018-Apr-21 02:01N 37°49' W 122°29'4 8.4
2018-Apr-21 01:30N 37°53' W 122°25'5 9.1
2018-Apr-21 01:00N 37°57' W 122°27'5 9.2
2018-Apr-21 00:30N 38°01' W 122°24'4 8.7
2018-Apr-21 00:00N 38°03' W 122°19'3 4.2
2018-Apr-20 23:23N 38°03' W 122°16'0 0.3
2018-Apr-20 23:00N 38°04' W 122°16'2 4.1
2018-Apr-20 22:30N 38°03' W 122°18'510.4
2018-Apr-20 22:00N 38°00' W 122°24'510.3
2018-Apr-20 21:30N 37°55' W 122°25'0 0.5
2018-Apr-20 20:59N 37°55' W 122°25'0 0.0
2018-Apr-20 20:29N 37°55' W 122°25'0 0.0
2018-Apr-20 19:59N 37°55' W 122°25'0 0.0
2018-Apr-20 19:29N 37°55' W 122°25'0 0.0
2018-Apr-20 18:59N 37°55' W 122°25'0 0.0
2018-Apr-20 18:29N 37°55' W 122°25'0 0.0
2018-Apr-20 17:56N 37°55' W 122°25'0 0.0
2018-Apr-20 17:29N 37°55' W 122°25'0 0.0
2018-Apr-20 16:59N 37°55' W 122°25'0 0.0
2018-Apr-20 16:29N 37°55' W 122°25'0 0.0
2018-Apr-20 15:59N 37°55' W 122°25'0 0.0
2018-Apr-20 15:29N 37°55' W 122°25'0 0.0
2018-Apr-20 14:59N 37°55' W 122°25'0 0.0
2018-Apr-20 14:29N 37°55' W 122°25'0 0.0
2018-Apr-20 13:59N 37°55' W 122°25'0 0.0
2018-Apr-20 13:29N 37°55' W 122°25'0 0.0
2018-Apr-20 12:59N 37°55' W 122°25'0 0.0
2018-Apr-20 12:29N 37°55' W 122°25'0 0.0
2018-Apr-20 11:56N 37°55' W 122°25'0 0.0
2018-Apr-20 11:29N 37°55' W 122°25'0 0.0
2018-Apr-20 10:59N 37°55' W 122°25'0 0.0
2018-Apr-20 10:29N 37°55' W 122°25'0 0.0
2018-Apr-20 09:59N 37°55' W 122°25'0 0.0
2018-Apr-20 09:29N 37°55' W 122°25'0 0.0
2018-Apr-20 08:59N 37°55' W 122°25'0 0.0
2018-Apr-20 08:29N 37°55' W 122°25'0 0.0
2018-Apr-20 07:59N 37°55' W 122°25'0 0.0
2018-Apr-20 07:29N 37°55' W 122°25'0 0.0
2018-Apr-20 06:59N 37°55' W 122°25'0 0.0
2018-Apr-20 06:29N 37°55' W 122°25'0 0.0
2018-Apr-20 05:59N 37°55' W 122°25'0 0.0
2018-Apr-20 05:29N 37°55' W 122°25'0 0.0
2018-Apr-20 04:59N 37°55' W 122°25'0 0.0
2018-Apr-20 04:29N 37°55' W 122°25'0 0.0
2018-Apr-20 03:59N 37°55' W 122°25'0 0.0
2018-Apr-20 03:29N 37°55' W 122°25'0 0.9
2018-Apr-20 03:00N 37°56' W 122°25'0 0.0
2018-Apr-20 02:30N 37°56' W 122°25'1 2.3
2018-Apr-20 02:00N 37°55' W 122°25'3 6.4
2018-Apr-20 01:30N 37°51' W 122°25'3 6.6
2018-Apr-20 01:00N 37°49' W 122°28'3 5.3
2018-Apr-20 00:30N 37°52' W 122°27'4 7.9
2018-Apr-20 00:00N 37°55' W 122°25'2 3.7
2018-Apr-19 23:27N 37°54' W 122°22'0 0.0
2018-Apr-19 23:00N 37°54' W 122°22'0 0.0
2018-Apr-19 22:30N 37°54' W 122°22'0 0.0
2018-Apr-19 22:00N 37°54' W 122°22'0 0.0
2018-Apr-19 21:30N 37°54' W 122°22'0 0.0
2018-Apr-19 21:00N 37°54' W 122°22'0 0.0
2018-Apr-19 20:30N 37°54' W 122°22'0 0.0
2018-Apr-19 20:00N 37°54' W 122°22'0 0.0
2018-Apr-19 19:30N 37°54' W 122°22'0 0.7
2018-Apr-19 19:00N 37°54' W 122°22'1 1.1
2018-Apr-19 18:30N 37°55' W 122°22'2 3.4
2018-Apr-19 18:01N 37°54' W 122°24'2 3.0
2018-Apr-19 17:31N 37°55' W 122°26'1 2.3
2018-Apr-19 16:58N 37°55' W 122°25'0 0.0
2018-Apr-19 16:28N 37°55' W 122°25'0 0.0
2018-Apr-19 15:58N 37°55' W 122°25'0 0.0
2018-Apr-19 15:28N 37°55' W 122°25'0 0.0
2018-Apr-19 14:55N 37°55' W 122°25'0 0.0
2018-Apr-19 14:28N 37°55' W 122°25'0 0.0
2018-Apr-19 13:58N 37°55' W 122°25'0 0.0
2018-Apr-19 13:28N 37°55' W 122°25'0 0.0
2018-Apr-19 12:58N 37°55' W 122°25'0 0.0
2018-Apr-19 12:28N 37°55' W 122°25'0 0.0
2018-Apr-19 11:58N 37°55' W 122°25'0 0.0
2018-Apr-19 11:28N 37°55' W 122°25'0 0.0
2018-Apr-19 10:58N 37°55' W 122°25'0 0.0
2018-Apr-19 10:28N 37°55' W 122°25'0 0.0
2018-Apr-19 09:52N 37°55' W 122°25'0 0.0
2018-Apr-19 09:28N 37°55' W 122°25'0 0.0
2018-Apr-19 08:58N 37°55' W 122°25'0 0.0
2018-Apr-19 08:28N 37°55' W 122°25'0 0.0
2018-Apr-19 07:58N 37°55' W 122°25'0 0.0
2018-Apr-19 07:28N 37°55' W 122°25'0 0.0
2018-Apr-19 06:58N 37°55' W 122°25'0 0.0
2018-Apr-19 06:28N 37°55' W 122°25'0 0.0
2018-Apr-19 05:55N 37°55' W 122°25'0 0.0
2018-Apr-19 05:28N 37°55' W 122°25'0 0.0
2018-Apr-19 04:58N 37°55' W 122°25'0 0.0
2018-Apr-19 04:28N 37°55' W 122°25'0 0.0
2018-Apr-19 04:01N 37°55' W 122°25'0 0.0
2018-Apr-19 03:28N 37°55' W 122°25'0 0.1
2018-Apr-19 03:00N 37°55' W 122°25'4 8.7
2018-Apr-19 02:30N 37°51' W 122°23'510.9
2018-Apr-19 02:00N 37°48' W 122°18'0 0.7
2018-Apr-19 01:30N 37°48' W 122°18'1 1.6
2018-Apr-19 01:00N 37°48' W 122°19'3 6.3
2018-Apr-19 00:30N 37°50' W 122°22'510.4
2018-Apr-19 00:00N 37°54' W 122°25'2 4.3
2018-Apr-18 23:30N 37°54' W 122°22'0 0.0
2018-Apr-18 23:00N 37°54' W 122°22'0 0.0
2018-Apr-18 22:30N 37°54' W 122°22'0 0.0
2018-Apr-18 22:00N 37°54' W 122°22'0 0.0
2018-Apr-18 21:30N 37°54' W 122°22'0 0.0
2018-Apr-18 21:00N 37°54' W 122°22'0 0.0
2018-Apr-18 20:30N 37°54' W 122°22'0 0.0
2018-Apr-18 20:00N 37°54' W 122°22'0 0.0
2018-Apr-18 19:30N 37°54' W 122°22'0 0.0
2018-Apr-18 19:00N 37°54' W 122°22'0 0.0
2018-Apr-18 18:30N 37°54' W 122°22'0 0.0
2018-Apr-18 18:00N 37°54' W 122°22'0 0.0
2018-Apr-18 17:30N 37°54' W 122°22'0 0.0
2018-Apr-18 16:57N 37°54' W 122°22'0 0.0
2018-Apr-18 16:30N 37°54' W 122°22'0 0.0
2018-Apr-18 16:00N 37°54' W 122°22'0 0.0
2018-Apr-18 15:30N 37°54' W 122°22'0 0.0
2018-Apr-18 14:54N 37°54' W 122°22'0 0.0
2018-Apr-18 14:30N 37°54' W 122°22'0 0.0
2018-Apr-18 14:00N 37°54' W 122°22'0 0.0
2018-Apr-18 13:30N 37°54' W 122°22'0 0.0
2018-Apr-18 13:00N 37°54' W 122°22'0 0.0
2018-Apr-18 12:30N 37°54' W 122°22'0 0.0
2018-Apr-18 12:00N 37°54' W 122°22'0 0.0
2018-Apr-18 11:30N 37°54' W 122°22'0 0.0
2018-Apr-18 11:00N 37°54' W 122°22'0 0.0
2018-Apr-18 10:30N 37°54' W 122°22'2 4.9
2018-Apr-18 10:00N 37°52' W 122°24'510.6
2018-Apr-18 09:30N 37°49' W 122°19'4 7.2
2018-Apr-18 09:00N 37°46' W 122°21'2 3.8
2018-Apr-18 08:30N 37°44' W 122°21'1 1.6
2018-Apr-18 08:01N 37°44' W 122°21'4 8.2
2018-Apr-18 07:30N 37°48' W 122°23'5 9.5
2018-Apr-18 07:00N 37°53' W 122°25'3 5.5
2018-Apr-18 06:30N 37°55' W 122°25'0 0.7
2018-Apr-18 06:00N 37°55' W 122°25'0 0.2
2018-Apr-18 05:30N 37°55' W 122°25'0 0.3
2018-Apr-18 04:58N 37°55' W 122°25'0 0.0
2018-Apr-18 04:28N 37°55' W 122°25'0 0.0
2018-Apr-18 03:58N 37°55' W 122°25'0 0.0
2018-Apr-18 03:28N 37°55' W 122°25'0 0.0
2018-Apr-18 02:58N 37°55' W 122°25'0 0.0
2018-Apr-18 02:28N 37°55' W 122°25'0 0.0
2018-Apr-18 01:58N 37°55' W 122°25'0 0.0
2018-Apr-18 01:31N 37°55' W 122°25'0 0.0
2018-Apr-18 01:01N 37°55' W 122°25'0 0.0
2018-Apr-18 00:28N 37°55' W 122°25'0 0.0
2018-Apr-18 00:01N 37°55' W 122°25'0 0.0
2018-Apr-17 23:28N 37°55' W 122°25'0 0.0
2018-Apr-17 22:58N 37°55' W 122°25'0 0.0
2018-Apr-17 22:31N 37°55' W 122°25'0 0.0
2018-Apr-17 21:58N 37°55' W 122°25'0 0.0
2018-Apr-17 21:28N 37°55' W 122°25'0 0.0
2018-Apr-17 20:58N 37°55' W 122°25'0 0.0
2018-Apr-17 20:28N 37°55' W 122°25'0 0.0
2018-Apr-17 19:58N 37°55' W 122°25'0 0.0
2018-Apr-17 19:28N 37°55' W 122°25'0 0.0
2018-Apr-17 19:01N 37°55' W 122°25'0 0.0
2018-Apr-17 18:27N 37°55' W 122°25'0 0.0
2018-Apr-17 18:01N 37°55' W 122°25'0 0.0
2018-Apr-17 17:31N 37°55' W 122°25'3 5.6
2018-Apr-17 17:00N 37°53' W 122°25'3 6.2
2018-Apr-17 16:30N 37°56' W 122°25'0 0.1
2018-Apr-17 16:00N 37°56' W 122°25'3 5.5
2018-Apr-17 15:30N 37°53' W 122°25'4 8.8
2018-Apr-17 15:00N 37°49' W 122°22'0 0.0
2018-Apr-17 14:29N 37°49' W 122°22'0 0.0
2018-Apr-17 14:01N 37°49' W 122°22'1 2.8
2018-Apr-17 13:30N 37°48' W 122°21'2 3.1
2018-Apr-17 13:00N 37°48' W 122°19'1 2.6
2018-Apr-17 12:30N 37°48' W 122°20'3 5.6
2018-Apr-17 12:00N 37°49' W 122°23'1 2.0
2018-Apr-17 11:30N 37°49' W 122°23'3 5.1
2018-Apr-17 11:00N 37°46' W 122°21'1 1.6
2018-Apr-17 10:30N 37°47' W 122°21'4 7.0
2018-Apr-17 10:00N 37°50' W 122°24'510.1
2018-Apr-17 09:30N 37°54' W 122°27'5 9.2
2018-Apr-17 09:00N 37°59' W 122°26'5 8.7
2018-Apr-17 08:29N 38°02' W 122°22'4 7.6
2018-Apr-17 08:00N 38°03' W 122°17'4 6.7
2018-Apr-17 07:27N 38°04' W 122°12'4 1.7
2018-Apr-17 05:07N 38°02' W 122°08'110.8
2018-Apr-17 05:00N 38°02' W 122°09'5 9.6
2018-Apr-17 04:30N 38°04' W 122°15'6 9.8
2018-Apr-17 03:56N 38°02' W 122°22'511.1
2018-Apr-17 03:30N 37°58' W 122°26'510.4
2018-Apr-17 03:00N 37°53' W 122°26'510.5
2018-Apr-17 02:30N 37°49' W 122°30'1 1.2
2018-Apr-17 02:00N 37°49' W 122°31'5 9.9
2018-Apr-17 01:30N 37°51' W 122°25'5 9.0
2018-Apr-17 01:00N 37°55' W 122°25'0 0.9
2018-Apr-17 00:30N 37°55' W 122°25'3 5.0
2018-Apr-17 00:00N 37°54' W 122°22'0 0.4
2018-Apr-16 23:30N 37°55' W 122°22'0 0.8
2018-Apr-16 23:00N 37°54' W 122°22'2 4.3
2018-Apr-16 22:30N 37°55' W 122°24'1 1.5
2018-Apr-16 22:00N 37°54' W 122°25'1 2.2
2018-Apr-16 21:29N 37°55' W 122°25'0 0.0
2018-Apr-16 20:59N 37°55' W 122°25'0 0.0
2018-Apr-16 20:29N 37°55' W 122°25'0 0.0
2018-Apr-16 20:00N 37°55' W 122°25'0 0.2
2018-Apr-16 19:30N 37°55' W 122°25'0 0.3
2018-Apr-16 19:01N 37°55' W 122°25'0 0.8
2018-Apr-16 18:30N 37°55' W 122°25'0 0.9
2018-Apr-16 18:00N 37°55' W 122°25'0 0.0
2018-Apr-16 17:30N 37°55' W 122°25'0 0.0
2018-Apr-16 17:00N 37°55' W 122°25'0 0.0
2018-Apr-16 16:30N 37°55' W 122°25'0 0.0
2018-Apr-16 16:01N 37°55' W 122°25'0 0.1
2018-Apr-16 15:30N 37°55' W 122°24'3 6.6
2018-Apr-16 15:00N 37°52' W 122°24'2 3.5
2018-Apr-16 14:31N 37°51' W 122°23'3 5.9
2018-Apr-16 14:00N 37°48' W 122°21'1 2.0
2018-Apr-16 13:30N 37°48' W 122°19'3 6.5
2018-Apr-16 13:01N 37°49' W 122°23'0 1.0
2018-Apr-16 12:30N 37°49' W 122°23'2 3.2
2018-Apr-16 11:59N 37°48' W 122°21'0 0.0
2018-Apr-16 11:29N 37°48' W 122°21'0 0.0
2018-Apr-16 10:59N 37°48' W 122°21'0 0.0
2018-Apr-16 10:29N 37°48' W 122°21'0 0.0
2018-Apr-16 09:59N 37°48' W 122°21'0 0.0
2018-Apr-16 09:29N 37°48' W 122°21'0 0.0
2018-Apr-16 08:59N 37°48' W 122°21'0 0.0
2018-Apr-16 08:30N 37°48' W 122°21'3 6.2
2018-Apr-16 08:00N 37°51' W 122°23'510.2
2018-Apr-16 07:31N 37°56' W 122°25'0 0.1
2018-Apr-16 07:00N 37°56' W 122°25'0 0.2
2018-Apr-16 06:31N 37°56' W 122°25'2 4.9
2018-Apr-16 06:00N 37°53' W 122°25'4 8.0
2018-Apr-16 05:30N 37°49' W 122°25'4 7.0
2018-Apr-16 05:00N 37°49' W 122°29'1 1.7
2018-Apr-16 04:30N 37°48' W 122°30'1 2.7
2018-Apr-16 04:00N 37°49' W 122°31'1 1.1
2018-Apr-16 03:31N 37°49' W 122°31'4 8.4
2018-Apr-16 03:00N 37°52' W 122°27'4 7.8
2018-Apr-16 02:29N 37°55' W 122°25'0 0.0
2018-Apr-16 01:56N 37°55' W 122°25'0 0.0
2018-Apr-16 01:29N 37°55' W 122°25'0 0.0
2018-Apr-16 00:59N 37°55' W 122°25'0 0.0
2018-Apr-16 00:29N 37°55' W 122°25'0 0.0
2018-Apr-15 23:59N 37°55' W 122°25'0 0.0
2018-Apr-15 23:29N 37°55' W 122°25'0 0.0
2018-Apr-15 22:59N 37°55' W 122°25'0 0.0
2018-Apr-15 22:26N 37°55' W 122°25'0 0.0
2018-Apr-15 21:56N 37°55' W 122°25'0 0.0
2018-Apr-15 21:29N 37°55' W 122°25'0 0.0
2018-Apr-15 20:59N 37°55' W 122°25'0 0.0
2018-Apr-15 20:29N 37°55' W 122°25'0 0.0
2018-Apr-15 19:47N 37°55' W 122°25'0 0.0
2018-Apr-15 19:29N 37°55' W 122°25'0 0.0
2018-Apr-15 18:59N 37°55' W 122°25'0 0.0
2018-Apr-15 18:29N 37°55' W 122°25'0 0.0
2018-Apr-15 17:59N 37°55' W 122°25'0 0.0
2018-Apr-15 17:29N 37°55' W 122°25'0 0.0
2018-Apr-15 16:59N 37°55' W 122°25'0 0.0
2018-Apr-15 16:29N 37°55' W 122°25'0 0.0
2018-Apr-15 15:59N 37°55' W 122°25'0 0.0
2018-Apr-15 15:29N 37°55' W 122°25'0 0.0
2018-Apr-15 14:59N 37°55' W 122°25'0 0.0
2018-Apr-15 14:29N 37°55' W 122°25'0 0.0
2018-Apr-15 13:56N 37°55' W 122°25'1 3.4
2018-Apr-15 13:30N 37°54' W 122°25'5 9.5
2018-Apr-15 13:00N 37°50' W 122°22'3 6.7
2018-Apr-15 12:30N 37°48' W 122°19'0 0.1
2018-Apr-15 12:01N 37°48' W 122°19'2 4.1
2018-Apr-15 11:30N 37°49' W 122°21'1 1.1
2018-Apr-15 10:59N 37°49' W 122°22'0 0.0
2018-Apr-15 10:29N 37°49' W 122°22'0 0.0
2018-Apr-15 10:00N 37°49' W 122°22'4 8.5
2018-Apr-15 09:30N 37°53' W 122°25'2 5.0
2018-Apr-15 09:00N 37°55' W 122°25'0 0.1
2018-Apr-15 08:30N 37°55' W 122°25'1 2.7
2018-Apr-15 08:00N 37°54' W 122°25'0 0.7
2018-Apr-15 07:30N 37°54' W 122°25'0 0.1
2018-Apr-15 07:00N 37°54' W 122°25'2 3.2
2018-Apr-15 06:31N 37°55' W 122°25'0 0.0
2018-Apr-15 06:00N 37°55' W 122°25'2 4.1
2018-Apr-15 05:30N 37°54' W 122°22'0 0.0
2018-Apr-15 05:00N 37°54' W 122°22'0 0.0
2018-Apr-15 04:30N 37°54' W 122°22'0 0.0
2018-Apr-15 04:00N 37°54' W 122°22'0 0.0
2018-Apr-15 03:30N 37°54' W 122°22'0 0.0
2018-Apr-15 03:00N 37°54' W 122°22'0 0.0
2018-Apr-15 02:30N 37°54' W 122°22'0 0.0
2018-Apr-15 02:00N 37°54' W 122°22'0 0.0
2018-Apr-15 01:30N 37°54' W 122°22'2 4.6
2018-Apr-15 01:00N 37°56' W 122°25'1 1.1
2018-Apr-15 00:30N 37°55' W 122°25'3 5.6
2018-Apr-15 00:00N 37°52' W 122°25'4 7.2
2018-Apr-14 23:30N 37°49' W 122°24'2 4.6
2018-Apr-14 23:00N 37°47' W 122°22'0 0.1
2018-Apr-14 22:30N 37°47' W 122°22'0 0.1
2018-Apr-14 22:00N 37°47' W 122°22'1 2.6
2018-Apr-14 21:30N 37°48' W 122°22'5 9.5
2018-Apr-14 21:00N 37°53' W 122°25'2 4.3
2018-Apr-14 20:26N 37°55' W 122°25'0 0.0
2018-Apr-14 19:59N 37°55' W 122°25'0 0.0
2018-Apr-14 19:29N 37°55' W 122°25'0 0.0
2018-Apr-14 18:59N 37°55' W 122°25'0 0.0
2018-Apr-14 18:29N 37°55' W 122°25'0 0.0
2018-Apr-14 17:59N 37°55' W 122°25'0 0.0
2018-Apr-14 17:29N 37°55' W 122°25'0 0.0
2018-Apr-14 16:59N 37°55' W 122°25'0 0.0
2018-Apr-14 16:26N 37°55' W 122°25'0 0.0
2018-Apr-14 15:56N 37°55' W 122°25'0 0.0
2018-Apr-14 15:29N 37°55' W 122°25'0 0.0
2018-Apr-14 14:56N 37°55' W 122°25'0 0.0
2018-Apr-14 14:29N 37°55' W 122°25'0 0.0
2018-Apr-14 14:01N 37°55' W 122°25'0 0.3
2018-Apr-14 13:30N 37°55' W 122°25'0 0.2
2018-Apr-14 13:00N 37°55' W 122°25'1 2.6
2018-Apr-14 12:30N 37°54' W 122°25'1 1.7
2018-Apr-14 12:00N 37°53' W 122°25'2 4.1
2018-Apr-14 11:30N 37°55' W 122°25'0 0.0
2018-Apr-14 11:00N 37°55' W 122°25'0 0.0
2018-Apr-14 10:30N 37°55' W 122°25'0 0.0
2018-Apr-14 10:00N 37°55' W 122°25'0 0.0
2018-Apr-14 09:30N 37°55' W 122°25'0 0.0
2018-Apr-14 09:00N 37°55' W 122°25'0 0.0
2018-Apr-14 08:30N 37°55' W 122°25'0 0.0
2018-Apr-14 08:00N 37°55' W 122°25'0 0.0
2018-Apr-14 07:30N 37°55' W 122°25'0 0.0
2018-Apr-14 07:00N 37°55' W 122°25'0 0.0
2018-Apr-14 06:30N 37°55' W 122°25'0 0.0
2018-Apr-14 06:00N 37°55' W 122°25'0 0.0
2018-Apr-14 05:30N 37°55' W 122°25'0 0.0
2018-Apr-14 05:00N 37°55' W 122°25'0 0.0
2018-Apr-14 04:30N 37°55' W 122°25'0 0.0
2018-Apr-14 04:00N 37°55' W 122°25'0 0.0
2018-Apr-14 03:30N 37°55' W 122°25'2 3.9
2018-Apr-14 03:00N 37°53' W 122°25'5 9.9
2018-Apr-14 02:30N 37°49' W 122°21'2 4.6
2018-Apr-14 02:00N 37°47' W 122°22'1 1.7
2018-Apr-14 01:30N 37°48' W 122°22'4 8.6
2018-Apr-14 01:00N 37°49' W 122°27'2 4.2
2018-Apr-14 00:31N 37°49' W 122°30'1 2.3
2018-Apr-14 00:00N 37°49' W 122°31'0 0.6
2018-Apr-13 23:30N 37°49' W 122°31'2 4.3
2018-Apr-13 23:00N 37°50' W 122°28'611.8
2018-Apr-13 22:30N 37°55' W 122°25'0 0.7
2018-Apr-13 21:54N 37°55' W 122°25'0 0.0
2018-Apr-13 21:30N 37°55' W 122°25'0 0.0
2018-Apr-13 21:00N 37°55' W 122°25'0 0.0
2018-Apr-13 20:30N 37°55' W 122°25'0 0.0
2018-Apr-13 20:00N 37°55' W 122°25'0 0.0
2018-Apr-13 19:30N 37°55' W 122°25'0 0.0
2018-Apr-13 19:00N 37°55' W 122°25'0 0.0
2018-Apr-13 18:30N 37°55' W 122°25'0 0.0
2018-Apr-13 18:00N 37°55' W 122°25'0 0.0
2018-Apr-13 17:30N 37°55' W 122°25'0 0.0
2018-Apr-13 17:00N 37°55' W 122°25'510.2
2018-Apr-13 16:30N 37°51' W 122°27'3 6.8
2018-Apr-13 16:00N 37°49' W 122°31'1 2.8
2018-Apr-13 15:30N 37°49' W 122°29'4 7.8
2018-Apr-13 15:00N 37°50' W 122°24'4 8.8
2018-Apr-13 14:30N 37°46' W 122°21'1 2.3
2018-Apr-13 14:00N 37°45' W 122°21'0 0.4
2018-Apr-13 13:30N 37°45' W 122°21'0 0.6
2018-Apr-13 13:00N 37°45' W 122°21'0 0.7
2018-Apr-13 12:30N 37°45' W 122°21'3 5.6
2018-Apr-13 12:00N 37°48' W 122°22'611.1
2018-Apr-13 11:30N 37°53' W 122°25'2 3.0
2018-Apr-13 10:41N 37°54' W 122°22'0 0.0
2018-Apr-13 10:29N 37°54' W 122°22'0 0.0
2018-Apr-13 09:56N 37°54' W 122°22'0 0.0
2018-Apr-13 09:26N 37°54' W 122°22'0 0.0
2018-Apr-13 08:56N 37°54' W 122°22'0 0.0
2018-Apr-13 08:29N 37°54' W 122°22'0 0.0
2018-Apr-13 07:59N 37°54' W 122°22'0 0.0
2018-Apr-13 07:29N 37°54' W 122°22'0 0.0
2018-Apr-13 06:59N 37°54' W 122°22'0 0.0
2018-Apr-13 06:26N 37°54' W 122°22'0 0.0
2018-Apr-13 04:50N 37°54' W 122°22'0 0.0
2018-Apr-13 04:29N 37°54' W 122°22'0 0.0
2018-Apr-13 03:53N 37°54' W 122°22'0 0.4
2018-Apr-13 03:30N 37°54' W 122°22'0 0.8
2018-Apr-13 03:00N 37°54' W 122°22'0 0.4
2018-Apr-13 02:30N 37°54' W 122°22'2 3.7
2018-Apr-13 02:00N 37°54' W 122°24'2 4.6
2018-Apr-13 01:30N 37°52' W 122°24'611.2
2018-Apr-13 01:01N 37°48' W 122°20'1 1.9
2018-Apr-13 00:30N 37°48' W 122°19'0 0.0
2018-Apr-13 00:00N 37°48' W 122°19'1 1.1
2018-Apr-12 23:30N 37°48' W 122°19'2 4.8
2018-Apr-12 23:00N 37°49' W 122°22'0 0.0
2018-Apr-12 22:27N 37°49' W 122°22'0 0.0
2018-Apr-12 21:57N 37°49' W 122°22'0 0.0
2018-Apr-12 21:30N 37°49' W 122°22'2 3.2
2018-Apr-12 21:00N 37°49' W 122°20'4 7.7
2018-Apr-12 20:30N 37°45' W 122°21'1 3.0
2018-Apr-12 20:00N 37°46' W 122°22'4 7.2
2018-Apr-12 19:30N 37°50' W 122°24'5 9.3
2018-Apr-12 19:00N 37°54' W 122°25'1 2.2
2018-Apr-12 18:28N 37°55' W 122°25'0 0.2
2018-Apr-12 17:55N 37°55' W 122°25'0 0.0
2018-Apr-12 17:22N 37°55' W 122°25'0 0.0
2018-Apr-12 16:58N 37°55' W 122°25'0 0.0
2018-Apr-12 16:16N 37°55' W 122°25'0 0.5
2018-Apr-12 16:00N 37°55' W 122°25'0 0.0
2018-Apr-12 15:26N 37°55' W 122°25'0 0.2
2018-Apr-12 15:00N 37°55' W 122°25'2 3.3
2018-Apr-12 14:30N 37°54' W 122°25'1 1.5
2018-Apr-12 14:00N 37°53' W 122°25'2 4.5
2018-Apr-12 13:29N 37°55' W 122°25'1 1.1
2018-Apr-12 13:00N 37°55' W 122°25'0 0.3
2018-Apr-12 12:30N 37°55' W 122°25'0 0.0
2018-Apr-12 12:00N 37°55' W 122°25'0 0.3
2018-Apr-12 11:30N 37°55' W 122°24'2 3.1
2018-Apr-12 11:00N 37°54' W 122°25'3 6.4
2018-Apr-12 10:30N 37°51' W 122°23'3 6.7
2018-Apr-12 10:00N 37°49' W 122°20'0 0.5
2018-Apr-12 09:28N 37°49' W 122°20'0 0.0
2018-Apr-12 08:58N 37°49' W 122°20'0 0.0
2018-Apr-12 08:28N 37°49' W 122°20'0 0.0
2018-Apr-12 07:58N 37°49' W 122°20'0 0.0
2018-Apr-12 07:28N 37°49' W 122°20'0 0.0
2018-Apr-12 06:55N 37°49' W 122°20'0 0.0
2018-Apr-12 06:28N 37°49' W 122°20'0 0.0
2018-Apr-12 05:58N 37°49' W 122°20'0 0.0
2018-Apr-12 05:28N 37°49' W 122°20'  

Dump ship's entire track history